Time;durP1;ratioP1;P1;durP2;ratioP2;P2;SDS_P1;SDS_P2;PMS_P1;PMS_P2;Temp;Humidity;BMP_temperature;BMP_pressure;BME280_temperature;BME280_humidity;BME280_pressure;Samples;Min_cycle;Max_cycle;Signal;HPM_P1;HPM_P2
2023/01/23 00:00:54;;;;;;;42.92;26.73;;;2.30;88.80;;;;;;5057943;28;20032;-72
2023/01/23 00:03:19;;;;;;;43.53;27.25;;;2.40;88.70;;;;;;5060593;28;20115;-72
2023/01/23 00:05:45;;;;;;;43.47;26.33;;;2.40;88.60;;;;;;5047401;28;20152;-71
2023/01/23 00:08:11;;;;;;;41.40;27.15;;;2.40;88.60;;;;;;5058033;28;20036;-72
2023/01/23 00:10:39;;;;;;;44.20;27.92;;;2.30;88.60;;;;;;5061292;28;20089;-72
2023/01/23 00:13:05;;;;;;;42.90;26.58;;;2.20;88.90;;;;;;5062572;28;20051;-72
2023/01/23 00:15:32;;;;;;;39.47;26.50;;;2.10;89.20;;;;;;5056024;28;20060;-72
2023/01/23 00:17:58;;;;;;;42.17;26.40;;;2.20;89.20;;;;;;5046296;28;20082;-72
2023/01/23 00:20:23;;;;;;;43.33;26.50;;;2.30;89.20;;;;;;5064758;28;20097;-72
2023/01/23 00:22:49;;;;;;;39.95;26.30;;;2.30;89.20;;;;;;5066293;28;20692;-73
2023/01/23 00:25:15;;;;;;;40.35;26.38;;;2.40;89.00;;;;;;5059784;28;20454;-72
2023/01/23 00:27:40;;;;;;;45.15;28.05;;;2.30;88.80;;;;;;5052339;28;20032;-72
2023/01/23 00:30:07;;;;;;;44.47;28.33;;;2.30;88.90;;;;;;5058154;28;20054;-72
2023/01/23 00:32:32;;;;;;;43.47;27.63;;;2.30;89.00;;;;;;5046871;28;20601;-73
2023/01/23 00:34:59;;;;;;;41.05;27.75;;;2.30;89.10;;;;;;5056392;28;20119;-72
2023/01/23 00:37:25;;;;;;;42.30;27.02;;;2.30;89.20;;;;;;5058048;28;20041;-72
2023/01/23 00:39:50;;;;;;;43.55;29.17;;;2.30;89.20;;;;;;5059532;28;20078;-72
2023/01/23 00:42:19;;;;;;;47.00;28.10;;;2.30;89.20;;;;;;5066028;28;20037;-72
2023/01/23 00:44:44;;;;;;;42.13;26.83;;;2.20;89.40;;;;;;5058848;28;20033;-72
2023/01/23 00:47:11;;;;;;;42.80;28.48;;;2.20;89.60;;;;;;5062214;28;20047;-73
2023/01/23 00:49:37;;;;;;;49.65;29.58;;;2.20;89.60;;;;;;5055791;28;20024;-72
2023/01/23 00:52:02;;;;;;;47.03;28.67;;;2.10;89.70;;;;;;5054844;28;20047;-73
2023/01/23 00:54:28;;;;;;;44.35;27.95;;;2.10;89.80;;;;;;5060660;28;20025;-72
2023/01/23 00:56:54;;;;;;;43.83;28.30;;;2.10;89.80;;;;;;5060619;28;20557;-72
2023/01/23 00:59:19;;;;;;;46.45;29.98;;;2.10;89.90;;;;;;5049624;28;20488;-72
2023/01/23 01:01:45;;;;;;;45.88;29.88;;;2.10;90.10;;;;;;5060862;28;20504;-73
2023/01/23 01:04:10;;;;;;;45.65;30.23;;;2.10;90.10;;;;;;5065360;28;20473;-73
2023/01/23 01:06:36;;;;;;;48.25;30.23;;;2.10;90.10;;;;;;5065355;28;20037;-73
2023/01/23 01:09:03;;;;;;;46.20;27.98;;;2.10;90.20;;;;;;5057415;28;20037;-72
2023/01/23 01:11:29;;;;;;;47.50;29.75;;;2.10;90.20;;;;;;5063119;28;20041;-73
2023/01/23 01:13:56;;;;;;;45.95;28.90;;;2.10;90.20;;;;;;5064842;28;20055;-72
2023/01/23 01:16:23;;;;;;;49.53;29.10;;;2.10;90.20;;;;;;5063710;28;20041;-72
2023/01/23 01:18:49;;;;;;;43.92;27.65;;;2.10;90.20;;;;;;5064981;28;20032;-71
2023/01/23 01:21:15;;;;;;;45.95;28.33;;;2.10;90.30;;;;;;5065865;28;20036;-71
2023/01/23 01:23:41;;;;;;;46.33;28.40;;;2.00;90.30;;;;;;5063279;28;20045;-71
2023/01/23 01:26:07;;;;;;;46.50;28.92;;;2.00;90.30;;;;;;5064458;28;20036;-71
2023/01/23 01:28:34;;;;;;;46.22;31.17;;;2.00;90.40;;;;;;5050205;28;20505;-71
2023/01/23 01:31:26;;;;;;;47.10;29.30;;;2.00;90.40;;;;;;5065966;28;20037;-72
2023/01/23 01:33:52;;;;;;;45.72;29.42;;;1.90;90.50;;;;;;5057492;28;20311;-72
2023/01/23 01:36:21;;;;;;;48.05;29.45;;;2.00;90.60;;;;;;5064077;28;20538;-70
2023/01/23 01:38:47;;;;;;;50.10;30.88;;;1.90;90.50;;;;;;5054802;28;20033;-71
2023/01/23 01:41:14;;;;;;;47.35;29.35;;;1.90;90.60;;;;;;5068529;28;20530;-73
2023/01/23 01:43:41;;;;;;;49.33;28.98;;;1.90;90.70;;;;;;5064822;28;20040;-72
2023/01/23 01:46:19;;;;;;;50.88;32.42;;;2.00;90.70;;;;;;5063105;28;20036;-72
2023/01/23 01:49:00;;;;;;;46.15;29.05;;;2.00;90.70;;;;;;5063839;28;20032;-72
2023/01/23 01:51:37;;;;;;;47.55;29.58;;;2.00;90.50;;;;;;5045437;28;20044;-72
2023/01/23 01:54:03;;;;;;;47.38;29.02;;;2.00;90.50;;;;;;5042547;28;20369;-71
2023/01/23 01:56:31;;;;;;;44.85;27.60;;;1.90;90.50;;;;;;5061716;28;20582;-71
2023/01/23 01:58:59;;;;;;;43.97;27.15;;;1.90;90.50;;;;;;5062203;28;20124;-71
2023/01/23 02:01:26;;;;;;;46.22;29.83;;;1.90;90.60;;;;;;5041506;28;20036;-72
2023/01/23 02:03:53;;;;;;;44.78;28.08;;;1.90;90.60;;;;;;5058051;28;20853;-72
2023/01/23 02:06:19;;;;;;;48.33;29.92;;;1.80;90.60;;;;;;5060366;28;20041;-72
2023/01/23 02:09:07;;;;;;;47.50;29.13;;;1.80;90.60;;;;;;5057430;28;20033;-73
2023/01/23 02:11:33;;;;;;;50.00;29.55;;;1.80;90.80;;;;;;5059219;28;20029;-71
2023/01/23 02:13:58;;;;;;;51.90;30.45;;;1.80;90.80;;;;;;5061806;28;20051;-72
2023/01/23 02:16:28;;;;;;;46.10;29.67;;;1.80;90.70;;;;;;5060206;28;20044;-72
2023/01/23 02:18:58;;;;;;;47.45;29.65;;;1.80;90.80;;;;;;5059623;28;20090;-72
2023/01/23 02:21:24;;;;;;;49.67;30.42;;;1.80;90.90;;;;;;5062823;28;20043;-72
2023/01/23 02:24:16;;;;;;;47.47;29.67;;;1.80;90.90;;;;;;5061315;28;20045;-72
2023/01/23 02:26:44;;;;;;;50.67;30.50;;;1.80;91.00;;;;;;5064992;28;20709;-72
2023/01/23 02:29:11;;;;;;;51.78;31.60;;;1.90;91.00;;;;;;5057116;28;20029;-73
2023/01/23 02:31:37;;;;;;;55.70;31.25;;;1.90;91.00;;;;;;5063982;28;20036;-72
2023/01/23 02:34:04;;;;;;;50.70;31.10;;;1.90;91.10;;;;;;5048962;28;20028;-73
2023/01/23 02:36:33;;;;;;;47.08;30.45;;;1.90;91.20;;;;;;5060920;28;20131;-71
2023/01/23 02:39:12;;;;;;;52.90;31.45;;;1.90;91.10;;;;;;5063970;28;20414;-73
2023/01/23 02:41:42;;;;;;;53.22;31.08;;;1.90;91.10;;;;;;5058649;28;20044;-71
2023/01/23 02:44:18;;;;;;;56.55;32.85;;;1.90;91.20;;;;;;5063103;28;20028;-72
2023/01/23 02:46:44;;;;;;;52.80;32.08;;;1.90;91.10;;;;;;5064584;28;20024;-73
2023/01/23 02:49:10;;;;;;;54.53;32.50;;;1.90;91.20;;;;;;5063323;28;20705;-73
2023/01/23 02:51:36;;;;;;;53.70;33.25;;;1.90;91.20;;;;;;5071550;28;20032;-71
2023/01/23 02:54:02;;;;;;;55.67;32.28;;;1.90;91.30;;;;;;5060333;28;20021;-72
2023/01/23 02:56:28;;;;;;;56.88;33.58;;;1.90;91.40;;;;;;5059241;28;20040;-72
2023/01/23 03:01:38;;;;;;;54.60;33.77;;;1.90;91.40;;;;;;5059503;28;20043;-72
2023/01/23 03:04:05;;;;;;;56.40;32.50;;;1.90;91.50;;;;;;5060251;28;20115;-73
2023/01/23 03:06:36;;;;;;;56.78;33.83;;;1.90;91.60;;;;;;5059918;28;20032;-73
2023/01/23 03:09:08;;;;;;;58.38;33.03;;;1.90;91.60;;;;;;5058447;28;20032;-73
2023/01/23 03:11:36;;;;;;;59.90;33.80;;;1.90;91.60;;;;;;5062860;28;20037;-72
2023/01/23 03:14:01;;;;;;;55.65;34.30;;;1.90;91.60;;;;;;5067137;28;20059;-73
2023/01/23 03:16:27;;;;;;;56.30;34.60;;;1.90;91.60;;;;;;5061588;28;20052;-72
2023/01/23 03:18:53;;;;;;;58.38;32.85;;;1.80;91.70;;;;;;5060597;28;20040;-73
2023/01/23 03:21:19;;;;;;;59.03;34.72;;;1.80;91.80;;;;;;5062351;28;20028;-72
2023/01/23 03:23:46;;;;;;;61.65;34.15;;;1.80;91.90;;;;;;5060969;28;20097;-72
2023/01/23 03:26:12;;;;;;;61.90;35.00;;;1.80;91.90;;;;;;5060169;28;20504;-74
2023/01/23 03:31:22;;;;;;;62.13;33.80;;;1.90;92.10;;;;;;5061832;28;20548;-73
2023/01/23 03:33:48;;;;;;;65.25;36.67;;;1.90;92.00;;;;;;5060890;28;20099;-72
2023/01/23 03:36:14;;;;;;;62.55;35.70;;;1.90;92.00;;;;;;5059940;28;20025;-73
2023/01/23 03:41:23;;;;;;;62.72;35.38;;;1.90;92.00;;;;;;5067173;28;20032;-72
2023/01/23 03:41:26;;;;;;;64.82;37.80;;;1.90;91.90;;;;;;5058473;28;20036;-73
2023/01/23 03:43:52;;;;;;;65.57;35.72;;;1.90;91.90;;;;;;5068798;28;20071;-74
2023/01/23 03:46:17;;;;;;;67.53;37.58;;;1.90;91.90;;;;;;5057474;28;20064;-72
2023/01/23 03:48:43;;;;;;;60.08;35.78;;;2.00;91.80;;;;;;5060531;28;20389;-73
2023/01/23 03:51:09;;;;;;;64.00;34.65;;;1.90;91.80;;;;;;5041790;28;20032;-71
2023/01/23 03:53:34;;;;;;;64.13;35.42;;;1.90;91.80;;;;;;5067296;28;20040;-73
2023/01/23 03:56:00;;;;;;;61.00;35.90;;;2.00;91.80;;;;;;5068425;28;20501;-73
2023/01/23 03:58:27;;;;;;;59.70;34.58;;;1.90;91.70;;;;;;5061520;28;20036;-72
2023/01/23 04:00:52;;;;;;;60.75;34.42;;;1.90;91.80;;;;;;5059744;28;20115;-73
2023/01/23 04:03:18;;;;;;;57.72;33.95;;;1.90;91.70;;;;;;5056895;28;20064;-73
2023/01/23 04:05:44;;;;;;;63.10;34.50;;;2.00;91.60;;;;;;5062222;28;20029;-72
2023/01/23 04:08:09;;;;;;;60.38;34.45;;;2.10;91.50;;;;;;5055798;28;20077;-73
2023/01/23 04:10:35;;;;;;;63.95;34.17;;;2.10;91.50;;;;;;5065509;28;20063;-73
2023/01/23 04:13:02;;;;;;;60.88;35.83;;;2.10;91.50;;;;;;5065441;28;20063;-72
2023/01/23 04:15:27;;;;;;;60.85;34.92;;;2.10;91.50;;;;;;5061210;28;20048;-71
2023/01/23 04:17:53;;;;;;;58.30;35.72;;;2.10;91.50;;;;;;5067515;28;20052;-72
2023/01/23 04:20:19;;;;;;;61.55;35.17;;;2.10;91.40;;;;;;5066091;28;20063;-72
2023/01/23 04:22:44;;;;;;;68.38;36.55;;;2.00;91.40;;;;;;5065627;28;20486;-72
2023/01/23 04:25:10;;;;;;;61.28;35.10;;;2.00;91.40;;;;;;5067675;28;20683;-72
2023/01/23 04:27:35;;;;;;;61.05;36.22;;;2.00;91.40;;;;;;5066606;28;20033;-75
2023/01/23 04:30:02;;;;;;;63.90;35.78;;;2.00;91.50;;;;;;5070834;28;20028;-72
2023/01/23 04:32:28;;;;;;;61.28;35.65;;;1.90;91.50;;;;;;5064593;28;20400;-71
2023/01/23 04:34:53;;;;;;;65.53;35.90;;;2.00;91.50;;;;;;5069385;28;20017;-71
2023/01/23 04:37:19;;;;;;;62.30;35.88;;;2.00;91.50;;;;;;5064448;28;20036;-73
2023/01/23 04:39:45;;;;;;;67.10;38.20;;;2.00;91.50;;;;;;5075541;28;20078;-71
2023/01/23 04:42:10;;;;;;;64.15;38.65;;;2.00;91.40;;;;;;5063946;28;20090;-71
2023/01/23 04:44:36;;;;;;;64.28;36.85;;;2.00;91.50;;;;;;5064715;28;20016;-73
2023/01/23 04:47:02;;;;;;;70.78;38.42;;;2.00;91.40;;;;;;5053318;28;20054;-71
2023/01/23 04:49:27;;;;;;;61.85;36.08;;;1.90;91.40;;;;;;5066132;28;20514;-73
2023/01/23 04:51:53;;;;;;;66.35;37.78;;;1.90;91.50;;;;;;5065546;28;20115;-72
2023/01/23 04:54:19;;;;;;;65.18;36.85;;;1.90;91.40;;;;;;5063073;28;20519;-71
2023/01/23 04:56:46;;;;;;;62.83;35.30;;;2.00;91.40;;;;;;5060773;28;20043;-71
2023/01/23 04:59:13;;;;;;;62.20;35.92;;;2.00;91.30;;;;;;5063036;28;20030;-71
2023/01/23 05:01:38;;;;;;;63.33;36.63;;;2.00;91.30;;;;;;5053090;28;20025;-71
2023/01/23 05:04:04;;;;;;;62.63;35.85;;;2.00;91.40;;;;;;5037865;28;20040;-72
2023/01/23 05:06:30;;;;;;;63.78;37.03;;;2.10;91.40;;;;;;5062602;28;20044;-71
2023/01/23 05:08:56;;;;;;;71.50;38.85;;;2.10;91.40;;;;;;5061783;28;20029;-71
2023/01/23 05:11:22;;;;;;;71.40;38.50;;;2.10;91.40;;;;;;5065137;28;20610;-73
2023/01/23 05:13:48;;;;;;;67.60;38.67;;;2.10;91.30;;;;;;5063332;28;20031;-71
2023/01/23 05:16:14;;;;;;;73.82;38.80;;;2.10;91.20;;;;;;5063359;28;20028;-71
2023/01/23 05:18:40;;;;;;;68.85;37.88;;;2.00;91.20;;;;;;5062278;28;20075;-71
2023/01/23 05:21:05;;;;;;;70.30;37.90;;;2.10;91.30;;;;;;5063611;28;20465;-73
2023/01/23 05:23:31;;;;;;;72.40;39.78;;;2.10;91.30;;;;;;5059266;28;20060;-72
2023/01/23 05:25:57;;;;;;;71.35;37.97;;;2.00;91.30;;;;;;5065923;28;20093;-71
2023/01/23 05:28:22;;;;;;;73.25;39.38;;;2.00;91.30;;;;;;5062906;28;20560;-72
2023/01/23 05:30:48;;;;;;;72.47;40.42;;;2.00;91.40;;;;;;5063554;28;20033;-72
2023/01/23 05:33:14;;;;;;;73.82;38.05;;;2.00;91.40;;;;;;5059728;28;20111;-72
2023/01/23 05:35:39;;;;;;;70.95;37.83;;;2.00;91.40;;;;;;5066436;28;20029;-72
2023/01/23 05:38:05;;;;;;;72.35;41.22;;;2.00;91.40;;;;;;5059618;28;20024;-72
2023/01/23 05:40:31;;;;;;;74.00;39.90;;;1.90;91.50;;;;;;5067736;28;20451;-71
2023/01/23 05:42:57;;;;;;;69.97;36.65;;;1.90;91.50;;;;;;5060871;28;20042;-71
2023/01/23 05:45:22;;;;;;;76.85;38.95;;;1.90;91.50;;;;;;5060761;28;20071;-72
2023/01/23 05:47:48;;;;;;;79.50;41.00;;;1.90;91.50;;;;;;5059044;28;20092;-72
2023/01/23 05:50:16;;;;;;;74.03;39.10;;;1.90;91.50;;;;;;5065115;28;20463;-71
2023/01/23 05:52:42;;;;;;;73.95;41.63;;;1.90;91.60;;;;;;5059187;28;20128;-71
2023/01/23 05:55:08;;;;;;;76.90;39.22;;;2.00;91.60;;;;;;5064446;28;20108;-72
2023/01/23 05:57:34;;;;;;;74.43;39.72;;;1.90;91.60;;;;;;5059376;28;20051;-71
2023/01/23 05:59:59;;;;;;;76.63;40.85;;;1.90;91.60;;;;;;5055409;28;20044;-71
2023/01/23 06:02:25;;;;;;;73.45;38.85;;;2.00;91.60;;;;;;5059904;28;20052;-72
2023/01/23 06:04:51;;;;;;;78.18;40.42;;;2.00;91.60;;;;;;5070535;28;20025;-72
2023/01/23 06:07:18;;;;;;;73.15;40.53;;;2.10;91.60;;;;;;5062051;28;20115;-71
2023/01/23 06:09:45;;;;;;;75.80;41.13;;;2.10;91.50;;;;;;5050778;28;20480;-72
2023/01/23 06:12:12;;;;;;;74.85;38.25;;;2.00;91.50;;;;;;5063675;28;20425;-71
2023/01/23 06:14:38;;;;;;;72.15;38.90;;;2.10;91.50;;;;;;5038935;28;20059;-72
2023/01/23 06:17:04;;;;;;;70.38;37.63;;;2.10;91.40;;;;;;5057090;28;20032;-72
2023/01/23 06:19:30;;;;;;;74.93;40.10;;;2.00;91.40;;;;;;5057360;28;20024;-72
2023/01/23 06:21:55;;;;;;;71.13;39.53;;;2.00;91.50;;;;;;5057346;28;20051;-72
2023/01/23 06:24:21;;;;;;;70.63;38.40;;;2.00;91.50;;;;;;5059214;28;20731;-72
2023/01/23 06:26:47;;;;;;;77.85;40.58;;;2.00;91.50;;;;;;5061048;28;20442;-72
2023/01/23 06:29:12;;;;;;;81.65;40.42;;;1.90;91.60;;;;;;5063130;28;20029;-73
2023/01/23 06:31:38;;;;;;;78.50;41.60;;;1.90;91.60;;;;;;5055672;28;20072;-72
2023/01/23 06:34:04;;;;;;;82.57;42.38;;;1.90;91.70;;;;;;5061648;28;20028;-71
2023/01/23 06:36:30;;;;;;;83.90;43.63;;;2.00;91.80;;;;;;5066038;28;20059;-72
2023/01/23 06:38:56;;;;;;;79.70;41.83;;;1.90;91.80;;;;;;5048612;28;20029;-72
2023/01/23 06:41:23;;;;;;;87.45;43.85;;;1.90;91.70;;;;;;5062948;28;21597;-73
2023/01/23 06:43:48;;;;;;;75.35;40.72;;;1.90;91.70;;;;;;5065370;28;20060;-72
2023/01/23 06:46:14;;;;;;;75.82;41.67;;;1.90;91.80;;;;;;5045421;28;20563;-72
2023/01/23 06:48:40;;;;;;;82.65;40.47;;;1.90;91.70;;;;;;5061174;28;20033;-73
2023/01/23 06:51:06;;;;;;;80.97;41.38;;;1.90;91.70;;;;;;5062654;28;20626;-73
2023/01/23 06:53:32;;;;;;;85.28;43.60;;;1.90;91.70;;;;;;5060318;28;20036;-72
2023/01/23 06:56:02;;;;;;;81.20;41.20;;;1.90;91.70;;;;;;5058810;28;20037;-72
2023/01/23 06:58:28;;;;;;;77.63;40.53;;;1.90;91.70;;;;;;5061669;28;20021;-72
2023/01/23 07:00:54;;;;;;;82.40;41.72;;;1.90;91.80;;;;;;5060078;28;20117;-71
2023/01/23 07:03:19;;;;;;;76.35;39.70;;;1.90;91.80;;;;;;5067883;28;20089;-76
2023/01/23 07:05:45;;;;;;;86.35;43.78;;;2.00;91.80;;;;;;5066929;28;20128;-72
2023/01/23 07:08:12;;;;;;;83.60;42.47;;;1.90;91.80;;;;;;5060074;28;20025;-73
2023/01/23 07:10:38;;;;;;;80.47;41.85;;;2.00;91.80;;;;;;5063262;28;20036;-71
2023/01/23 07:13:05;;;;;;;81.00;41.72;;;2.00;91.80;;;;;;5067719;28;20077;-72
2023/01/23 07:15:32;;;;;;;83.93;42.85;;;2.00;91.80;;;;;;5040309;28;20033;-72
2023/01/23 07:17:58;;;;;;;81.82;41.05;;;2.10;91.80;;;;;;5051079;28;20139;-73
2023/01/23 07:20:27;;;;;;;89.35;45.97;;;2.10;91.80;;;;;;5052088;28;20028;-73
2023/01/23 07:22:54;;;;;;;87.47;45.55;;;2.10;91.70;;;;;;5053169;28;20095;-73
2023/01/23 07:25:20;;;;;;;88.55;45.85;;;2.00;91.70;;;;;;5058070;28;20417;-72
2023/01/23 07:27:46;;;;;;;86.63;44.50;;;1.90;91.90;;;;;;5054825;28;20492;-72
2023/01/23 07:30:12;;;;;;;84.97;45.50;;;2.00;91.90;;;;;;5062090;28;20024;-72
2023/01/23 07:32:38;;;;;;;86.72;43.15;;;2.00;92.00;;;;;;5057376;28;20041;-73
2023/01/23 07:35:04;;;;;;;85.63;45.78;;;2.00;92.00;;;;;;5062829;28;20032;-73
2023/01/23 07:37:30;;;;;;;84.82;44.83;;;1.90;92.00;;;;;;5054245;28;20046;-72
2023/01/23 07:39:55;;;;;;;88.50;46.70;;;2.00;92.00;;;;;;5057390;28;20032;-72
2023/01/23 07:42:22;;;;;;;84.10;42.67;;;2.00;92.10;;;;;;5059471;28;20140;-76
2023/01/23 07:44:48;;;;;;;78.43;39.67;;;2.00;92.20;;;;;;5060223;28;20067;-76
2023/01/23 07:47:13;;;;;;;88.60;45.03;;;2.00;92.10;;;;;;5057313;28;20426;-75
2023/01/23 07:49:39;;;;;;;89.72;44.13;;;2.00;92.20;;;;;;5056558;28;20025;-76
2023/01/23 07:52:05;;;;;;;80.60;42.70;;;2.10;92.20;;;;;;5054757;28;20365;-75
2023/01/23 07:54:31;;;;;;;83.90;44.95;;;2.10;92.10;;;;;;5064420;28;20107;-75
2023/01/23 07:56:56;;;;;;;92.38;44.15;;;2.10;92.10;;;;;;5069915;28;20719;-74
2023/01/23 07:59:22;;;;;;;81.50;43.03;;;2.10;92.10;;;;;;5058085;28;20138;-76
2023/01/23 08:01:49;;;;;;;81.80;43.53;;;2.10;92.10;;;;;;5054775;28;20032;-75
2023/01/23 08:04:15;;;;;;;78.10;43.25;;;2.10;92.00;;;;;;5063258;28;20020;-75
2023/01/23 08:06:41;;;;;;;87.25;46.10;;;2.20;92.00;;;;;;5062015;28;20500;-74
2023/01/23 08:09:07;;;;;;;86.88;45.20;;;2.20;91.90;;;;;;5057041;28;20095;-75
2023/01/23 08:11:32;;;;;;;89.40;46.03;;;2.20;91.90;;;;;;5027618;28;20162;-75
2023/01/23 08:13:58;;;;;;;90.35;47.03;;;2.20;91.80;;;;;;5061579;28;20021;-76
2023/01/23 08:16:24;;;;;;;81.60;43.38;;;2.20;91.80;;;;;;5057052;28;20039;-74
2023/01/23 08:18:49;;;;;;;86.50;43.58;;;2.30;91.80;;;;;;5051084;28;20314;-74
2023/01/23 08:21:15;;;;;;;82.50;45.45;;;2.30;91.80;;;;;;5057919;28;21439;-74
2023/01/23 08:23:41;;;;;;;84.45;45.40;;;2.30;91.70;;;;;;5058480;28;20104;-74
2023/01/23 08:26:12;;;;;;;85.40;44.10;;;2.40;91.70;;;;;;5040220;28;20434;-74
2023/01/23 08:28:38;;;;;;;81.57;43.17;;;2.30;91.60;;;;;;5054596;28;20023;-73
2023/01/23 08:31:06;;;;;;;74.85;39.83;;;2.40;91.70;;;;;;5056427;28;20036;-74
2023/01/23 08:33:33;;;;;;;82.75;44.88;;;2.40;91.70;;;;;;5055779;28;20073;-74
2023/01/23 08:35:59;;;;;;;81.03;44.58;;;2.40;91.50;;;;;;5058329;28;20035;-74
2023/01/23 08:38:25;;;;;;;83.85;44.72;;;2.50;91.50;;;;;;5056550;28;20545;-75
2023/01/23 08:40:52;;;;;;;85.50;42.97;;;2.50;91.50;;;;;;5033932;28;20036;-74
2023/01/23 08:43:19;;;;;;;91.85;45.95;;;2.50;91.40;;;;;;5065531;28;20012;-75
2023/01/23 08:45:49;;;;;;;79.38;44.15;;;2.50;91.40;;;;;;5059605;28;20136;-75
2023/01/23 08:48:15;;;;;;;80.57;43.17;;;2.50;91.40;;;;;;5048218;28;20769;-75
2023/01/23 08:50:41;;;;;;;77.22;42.10;;;2.60;91.30;;;;;;5055460;28;20048;-73
2023/01/23 08:53:06;;;;;;;81.18;42.38;;;2.60;91.30;;;;;;5043024;28;20028;-74
2023/01/23 08:55:34;;;;;;;82.95;44.10;;;2.70;91.10;;;;;;5051444;28;20028;-74
2023/01/23 08:58:01;;;;;;;81.10;45.47;;;2.70;91.00;;;;;;5051428;28;20428;-75
2023/01/23 09:00:27;;;;;;;83.78;46.45;;;2.70;90.90;;;;;;5057339;28;20559;-74
2023/01/23 09:02:53;;;;;;;82.20;47.42;;;2.70;90.80;;;;;;5057603;28;20718;-75
2023/01/23 09:05:18;;;;;;;82.10;45.17;;;2.70;90.80;;;;;;5058184;28;20062;-75
2023/01/23 09:07:44;;;;;;;77.82;44.67;;;2.70;90.80;;;;;;5059346;28;20371;-74
2023/01/23 09:10:11;;;;;;;83.70;45.25;;;2.70;91.00;;;;;;5058526;28;20055;-75
2023/01/23 09:12:38;;;;;;;78.85;41.28;;;2.70;90.80;;;;;;5056298;28;20089;-76
2023/01/23 09:15:04;;;;;;;81.75;44.50;;;2.80;90.80;;;;;;5056523;28;20099;-75
2023/01/23 09:17:30;;;;;;;81.20;44.70;;;2.70;90.70;;;;;;5058599;28;20484;-74
2023/01/23 09:19:59;;;;;;;76.90;42.08;;;2.80;90.80;;;;;;5055741;28;20028;-75
2023/01/23 09:22:25;;;;;;;86.97;44.92;;;2.80;90.70;;;;;;5057339;28;20784;-74
2023/01/23 09:24:50;;;;;;;76.63;42.10;;;2.80;90.70;;;;;;5058163;28;20029;-75
2023/01/23 09:27:17;;;;;;;77.95;42.95;;;2.90;90.60;;;;;;5056490;28;20547;-74
2023/01/23 09:29:42;;;;;;;72.22;40.97;;;2.90;90.60;;;;;;5040933;28;20414;-76
2023/01/23 09:32:08;;;;;;;74.18;40.13;;;2.90;90.50;;;;;;5056283;28;20040;-74
2023/01/23 09:34:34;;;;;;;74.15;41.78;;;2.90;90.50;;;;;;5062536;28;20099;-74
2023/01/23 09:36:59;;;;;;;76.03;42.53;;;3.00;90.40;;;;;;5065505;28;20119;-75
2023/01/23 09:39:25;;;;;;;73.03;40.15;;;3.00;90.20;;;;;;5056749;28;20326;-75
2023/01/23 09:41:52;;;;;;;70.40;39.42;;;3.10;90.10;;;;;;5048333;28;20043;-77
2023/01/23 09:44:34;;;;;;;76.85;41.03;;;2.90;89.90;;;;;;5052704;28;20025;-75
2023/01/23 09:47:22;;;;;;;73.40;39.80;;;3.00;90.20;;;;;;5034387;28;20033;-77
2023/01/23 09:50:01;;;;;;;71.03;38.85;;;3.10;90.20;;;;;;5052533;28;20019;-74
2023/01/23 09:52:33;;;;;;;82.80;43.00;;;3.20;90.10;;;;;;5049870;28;20033;-75
2023/01/23 09:55:12;;;;;;;71.88;39.35;;;3.20;89.80;;;;;;5058520;28;20035;-75
2023/01/23 09:57:45;;;;;;;68.13;36.60;;;3.30;89.60;;;;;;5055418;28;20028;-75
2023/01/23 10:00:31;;;;;;;66.03;36.55;;;3.10;89.20;;;;;;5051402;28;20081;-75
2023/01/23 10:03:00;;;;;;;73.10;40.13;;;3.20;89.30;;;;;;5052787;28;20052;-75
2023/01/23 10:05:59;;;;;;;68.13;37.55;;;3.30;89.20;;;;;;5057712;28;20461;-75
2023/01/23 10:08:48;;;;;;;65.70;35.58;;;3.40;89.20;;;;;;5033622;28;20077;-76
2023/01/23 10:11:45;;;;;;;61.42;36.08;;;3.40;89.00;;;;;;5073388;28;20008;-76
2023/01/23 10:14:35;;;;;;;62.25;35.97;;;3.40;88.80;;;;;;5049339;28;20777;-75
2023/01/23 10:17:07;;;;;;;68.22;37.47;;;3.50;88.60;;;;;;5062966;28;20048;-74
2023/01/23 10:19:51;;;;;;;64.70;36.17;;;3.40;88.50;;;;;;5057092;28;20028;-74
2023/01/23 10:22:40;;;;;;;63.90;36.15;;;3.40;88.50;;;;;;5055528;28;20064;-75
2023/01/23 10:25:19;;;;;;;60.85;34.75;;;3.50;88.50;;;;;;5039594;28;20119;-75
2023/01/23 10:27:46;;;;;;;61.47;34.83;;;3.50;88.50;;;;;;5057113;28;20119;-76
2023/01/23 10:30:21;;;;;;;62.83;36.13;;;3.60;88.20;;;;;;5058979;28;20024;-76
2023/01/23 10:32:56;;;;;;;65.05;36.78;;;3.50;88.20;;;;;;5047659;28;20047;-76
2023/01/23 10:35:29;;;;;;;;;;;3.40;88.10;;;;;;5061296;28;20050;-77
2023/01/23 10:38:17;;;;;;;63.78;35.78;;;3.50;88.10;;;;;;5062229;28;20735;-75
2023/01/23 10:43:26;;;;;;;63.65;37.28;;;3.70;87.60;;;;;;5054167;28;20456;-78
2023/01/23 10:45:52;;;;;;;69.78;37.17;;;3.70;87.50;;;;;;5058832;28;20032;-77
2023/01/23 10:48:47;;;;;;;65.65;37.75;;;3.80;87.50;;;;;;5060794;28;20027;-76
2023/01/23 10:51:37;;;;;;;63.08;37.83;;;3.80;87.20;;;;;;5056440;28;20055;-77
2023/01/23 10:54:17;;;;;;;65.43;37.10;;;3.90;87.00;;;;;;5043666;28;20028;-77
2023/01/23 10:57:19;;;;;;;63.80;37.25;;;3.80;86.60;;;;;;5037461;28;20029;-77
2023/01/23 11:00:03;;;;;;;62.80;36.58;;;3.80;86.50;;;;;;5060024;28;20020;-77
2023/01/23 11:02:31;;;;;;;65.40;37.35;;;3.90;86.50;;;;;;5066346;28;20047;-77
2023/01/23 11:04:58;;;;;;;62.30;36.88;;;3.90;86.50;;;;;;5069988;28;20029;-77
2023/01/23 11:07:25;;;;;;;62.33;36.80;;;3.90;86.30;;;;;;5066793;28;20171;-80
2023/01/23 11:09:59;;;;;;;61.40;35.15;;;3.90;86.30;;;;;;5076335;28;20119;-78
2023/01/23 11:12:31;;;;;;;60.72;35.75;;;4.00;86.20;;;;;;5062963;28;20075;-78
2023/01/23 11:15:21;;;;;;;60.25;34.35;;;4.00;85.80;;;;;;5063513;28;20040;-79
2023/01/23 11:17:49;;;;;;;59.78;36.03;;;4.10;85.80;;;;;;5043881;28;20040;-78
2023/01/23 11:20:24;;;;;;;58.85;32.63;;;4.10;85.70;;;;;;5058917;28;20016;-79
2023/01/23 11:23:09;;;;;;;61.35;36.17;;;4.20;85.40;;;;;;5062734;28;20671;-79
2023/01/23 11:25:35;;;;;;;;;;;4.40;85.70;;;;;;5064636;28;20028;-79
2023/01/23 11:28:15;;;;;;;58.08;34.60;;;4.60;85.10;;;;;;5065170;28;19967;-79
2023/01/23 11:30:48;;;;;;;54.65;33.60;;;4.70;84.80;;;;;;5061065;28;20048;-79
2023/01/23 11:33:35;;;;;;;55.22;33.55;;;4.70;83.70;;;;;;5039776;28;20060;-77
2023/01/23 11:36:01;;;;;;;55.33;32.70;;;4.60;83.30;;;;;;5051137;28;20055;-78
2023/01/23 11:38:39;;;;;;;59.17;35.58;;;4.60;83.20;;;;;;5055354;28;20032;-79
2023/01/23 11:41:08;;;;;;;67.18;38.35;;;4.60;83.40;;;;;;5054577;28;20148;-78
2023/01/23 11:43:33;;;;;;;58.20;33.50;;;4.60;83.10;;;;;;5054736;28;20032;-77
2023/01/23 11:46:14;;;;;;;51.67;31.17;;;4.50;83.00;;;;;;5050900;28;20045;-77
2023/01/23 11:48:52;;;;;;;49.72;30.08;;;4.30;82.90;;;;;;5054869;28;20020;-78
2023/01/23 11:52:14;;;;;;;48.38;29.88;;;4.30;83.10;;;;;;5050191;28;20141;-77
2023/01/23 11:54:43;;;;;;;52.40;32.10;;;4.40;83.50;;;;;;4961942;28;20133;-76
2023/01/23 11:57:27;;;;;;;50.15;31.02;;;4.60;83.40;;;;;;4959323;28;20105;-77
2023/01/23 12:00:16;;;;;;;50.55;31.13;;;4.70;83.10;;;;;;5031048;28;20041;-78
2023/01/23 12:03:33;;;;;;;48.80;30.48;;;4.70;82.10;;;;;;5034853;28;20087;-79
2023/01/23 12:05:59;;;;;;;47.97;31.30;;;4.60;82.10;;;;;;5008447;28;20482;-78
2023/01/23 12:08:39;;;;;;;56.90;33.65;;;4.70;82.20;;;;;;5054044;28;20480;-79
2023/01/23 12:11:15;;;;;;;49.58;31.85;;;4.70;81.80;;;;;;5055824;28;20032;-78
2023/01/23 12:14:24;;;;;;;44.95;29.55;;;4.70;81.80;;;;;;5057450;28;20075;-78
2023/01/23 12:17:07;;;;;;;47.45;33.20;;;4.70;81.60;;;;;;4977973;28;20089;-77
2023/01/23 12:20:02;;;;;;;44.55;30.02;;;4.80;81.20;;;;;;5057793;28;20512;-78
2023/01/23 12:23:01;;;;;;;46.50;30.92;;;4.90;81.00;;;;;;5069002;28;20400;-79
2023/01/23 12:25:37;;;;;;;45.13;30.05;;;4.90;80.30;;;;;;5063849;28;20047;-79
2023/01/23 12:28:21;;;;;;;48.65;32.55;;;4.80;80.20;;;;;;5042096;28;20028;-79
2023/01/23 12:30:53;;;;;;;53.10;31.73;;;4.80;80.00;;;;;;5059877;28;20119;-79
2023/01/23 12:33:37;;;;;;;47.55;31.50;;;5.00;80.20;;;;;;5072275;28;20174;-78
2023/01/23 12:36:36;;;;;;;52.00;34.25;;;5.10;79.20;;;;;;5059680;28;20098;-78
2023/01/23 12:39:05;;;;;;;47.03;30.67;;;5.10;79.40;;;;;;5059923;28;20056;-78
2023/01/23 12:41:41;;;;;;;46.30;31.00;;;5.00;78.90;;;;;;5069256;28;20036;-78
2023/01/23 12:44:56;;;;;;;48.75;31.83;;;4.80;79.10;;;;;;5074801;28;20043;-79
2023/01/23 12:47:29;;;;;;;46.37;30.87;;;4.80;80.00;;;;;;5038145;28;20048;-78
2023/01/23 12:50:00;;;;;;;45.67;30.65;;;5.00;79.20;;;;;;5047236;28;20135;-78
2023/01/23 12:52:32;;;;;;;42.92;28.50;;;5.10;78.90;;;;;;5070914;28;20044;-79
2023/01/23 12:55:19;;;;;;;43.67;28.40;;;5.40;78.50;;;;;;5079537;28;20032;-80
2023/01/23 12:57:53;;;;;;;41.47;28.27;;;5.60;77.80;;;;;;5061581;28;20094;-77
2023/01/23 13:00:24;;;;;;;43.05;30.15;;;5.40;77.20;;;;;;5078081;28;20024;-78